x

Central Dixon Entrance Buoy (46145) Wave Buoy

3:00am - Thu 25th Dec 2014 All times are PST. -8 hours from GMT.

  • Sig Wave height 4.9ft
  • Peak Period 9s
  • Wind
    20mph, 25mph gusts
  • Sea Temp 48°f
  • Air Temp 42°f
  • Sea Pressure 1015.3mb
  • Central Dixon Entrance Buoy
  • Central Dixon Entrance Buoy

More Historic Weather Station data

Upgrade to MSW Pro to gain access to the past 30 days of data for over 8000 Wavebouys and Weather Stations around the globe.

Join Pro

Comparision Forecast

View Surf forecast
   
Thu 12/25 3:00am 5ft 9s 20 25 mph 1015.3mb 48f 42f
2:00am 5ft 9s 16 20 mph 1015.5mb 48f 43f
1:00am 6ft 8s 13 16 mph 1015.8mb 48f 43f
12:00am 6ft 8s 11 13 mph 1016.4mb 48f 43f
Wed 12/24 11:00pm 7ft 10s 16 18 mph 1016.2mb 48f 43f
10:00pm 7.5ft 9s 9 11 mph 1016.3mb 48f 44f
9:00pm 7ft 8s 13 16 mph 1016.6mb 48f 44f
8:00pm 8ft 9s 16 18 mph 1016.1mb 48f 45f
7:00pm 8ft 9s 13 18 mph 1015.7mb 48f 45f
6:00pm 8ft 11s 16 18 mph 1016mb 48f 45f
5:00pm 8ft 11s 20 25 mph 1016.2mb 48f 45f
4:00pm 8.5ft 10s 20 25 mph 1015.3mb 48f 45f
3:00pm 8.5ft 13s 25 31 mph 1014.7mb 48f 45f
1:00pm 11ft 10s 22 27 mph 1013.9mb 48f 46f
12:00pm 12ft 9s 25 31 mph 1013.4mb 48f 47f
11:00am 12ft 10s 29 34 mph 1013mb 48f 46f
10:00am 12.5ft 10s 27 36 mph 1012.2mb 48f 46f
9:00am 13ft 11s 27 34 mph 1010.8mb 48f 47f
8:00am 14ft 11s 27 34 mph 1009.9mb 48f 46f
7:00am 15ft 11s 31 38 mph 1008.5mb 48f 46f
6:00am 14ft 11s 29 36 mph 1007.4mb 48f 47f
5:00am 12.5ft 12s 29 43 mph 1006.2mb 48f 47f
4:00am 12ft 14s 31 38 mph 1005.1mb 48f 46f
3:00am 12ft 13s 31 38 mph 1003.6mb 48f 47f
2:00am 13ft 7s 34 43 mph 1002.1mb 48f 46f
1:00am 12ft 14s 31 38 mph 1000.6mb 48f 46f
12:00am 13ft 15s 31 38 mph 999.3mb 48f 46f
Tue 12/23 10:00pm 11.5ft 7s 36 45 mph 995.8mb 48f 46f
9:00pm 11ft 6s 36 45 mph 993.9mb 48f 46f
8:00pm 11.5ft 15s 36 43 mph 992mb 48f 46f
7:00pm 9.5ft 6s 34 40 mph 990.1mb 48f 47f
6:00pm 8.5ft 15s 29 38 mph 989.7mb 48f 47f
5:00pm 8ft 15s 29 36 mph 989.3mb 48f 46f
4:00pm 8ft 16s 27 31 mph 989mb 48f 47f
3:00pm 8ft 17s 27 31 mph 988.8mb 48f 46f
2:00pm 8ft 16s 31 36 mph 988.3mb 48f 46f
1:00pm 7.5ft 15s 29 38 mph 988.4mb 48f 46f
12:00pm 8ft 6s 31 40 mph 988.7mb 48f 46f
11:00am 7ft 15s 31 38 mph 989.1mb 48f 46f
10:00am 7.5ft 16s 31 40 mph 989.6mb 48f 45f
9:00am 7ft 16s 31 38 mph 990mb 48f 46f
8:00am 7.5ft 6s 27 34 mph 990.5mb 48f 46f
6:00am 9ft 6s 31 38 mph 991.7mb 48f 46f
5:00am 10ft 7s 27 31 mph 992.6mb 48f 47f
4:00am 12ft 7s 27 31 mph 993.6mb 48f 47f
3:00am 13ft 7s 38 51 mph 996mb 48f 43f
2:00am 16.5ft 7s 43 51 mph 997.8mb 48f 42f
1:00am 14.5ft 8s 43 51 mph 1001.4mb 48f 42f
12:00am 12.5ft 7s 43 54 mph 1004.7mb 48f 44f
Mon 12/22 11:00pm 10ft 7s 43 51 mph 1007.9mb 48f 45f
10:00pm 9ft 13s 38 49 mph 1009.6mb 48f 46f
9:00pm 8ft 14s 31 38 mph 1012.3mb 48f 46f
7:00pm 6ft 14s 22 27 mph 1016mb 48f 47f
6:00pm 6.5ft 14s 20 27 mph 1018mb 48f 47f
5:00pm 6ft 14s 18 22 mph 1019.1mb 48f 47f
2:00pm 7ft 13s 13 16 mph 1021.8mb 48f 46f
1:00pm 7ft 14s 16 18 mph 1022.7mb 48f 46f
12:00pm 8ft 13s 16 18 mph 1022.5mb 48f 46f
11:00am 7.5ft 14s 13 16 mph 1022.3mb 48f 45f
10:00am 7.5ft 14s 11 13 mph 1022.2mb 48f 46f
9:00am 9ft 13s 11 13 mph 1021.5mb 48f 46f
8:00am 8ft 14s 13 16 mph 1020.7mb 48f 47f
7:00am 8.5ft 14s 18 20 mph 1020.3mb 48f 47f
6:00am 9ft 14s 18 22 mph 1019.6mb 48f 47f
5:00am 9ft 15s 20 25 mph 1018.7mb 48f 47f
4:00am 9ft 15s 20 25 mph 1017.7mb 48f 47f
3:00am 10ft 14s 22 27 mph 1015.7mb 48f 47f
2:00am 9ft 13s 25 29 mph 1014.6mb 48f 47f
1:00am 10ft 14s 25 29 mph 1013.4mb 48f 47f
12:00am 10ft 14s 27 34 mph 1012.1mb 48f 47f
Sun 12/21 11:00pm 9.5ft 15s 27 34 mph 1010.5mb 48f 47f
10:00pm 9ft 15s 29 36 mph 1008.8mb 48f 47f
9:00pm 9ft 14s 22 29 mph 1007.7mb 48f 46f
8:00pm 8ft 14s 18 22 mph 1006.6mb 48f 45f
7:00pm 7ft 15s 20 27 mph 1005.2mb 48f 46f
6:00pm 6ft 13s 18 22 mph 1004.2mb 48f 46f
5:00pm 5.5ft 12s 13 16 mph 1003.3mb 48f 46f
4:00pm 6ft 12s 13 18 mph 1002.3mb 48f 46f
3:00pm 5.5ft 13s 13 18 mph 1001mb 48f 46f
2:00pm 5ft 13s 13 18 mph 1000.2mb 48f 46f
1:00pm 5.5ft 13s 16 18 mph 999.1mb 48f 46f